Time;durP1;ratioP1;P1;durP2;ratioP2;P2;SDS_P1;SDS_P2;PMS_P1;PMS_P2;Temp;Humidity;BMP_temperature;BMP_pressure;BME280_temperature;BME280_humidity;BME280_pressure;Samples;Min_cycle;Max_cycle;Signal;HPM_P1;HPM_P2
2021/03/25 00:02:08;;;;;;;;;34.33;34.33;;;;;2.65;84.97;100718.16;4882729;29;12505;-77
2021/03/25 00:04:36;;;;;;;;;29.33;29.33;;;;;2.47;86.10;100722.28;4881818;29;8887;-76
2021/03/25 00:07:32;;;;;;;;;27.67;27.67;;;;;2.51;85.86;100728.81;4884100;29;11753;-77
2021/03/25 00:10:33;;;;;;;;;28.33;28.33;;;;;2.42;85.89;100725.03;4880837;29;11726;-77
2021/03/25 00:13:29;;;;;;;;;32.67;31.00;;;;;2.50;86.03;100717.09;4881259;29;11749;-77
2021/03/25 00:15:59;;;;;;;;;26.67;24.67;;;;;2.41;86.55;100720.66;4882262;29;11781;-77
2021/03/25 00:18:55;;;;;;;;;32.67;32.67;;;;;2.60;86.06;100710.78;4882478;29;11800;-77
2021/03/25 00:21:51;;;;;;;;;36.00;33.33;;;;;2.40;86.49;100714.38;4882010;29;11812;-77
2021/03/25 00:24:46;;;;;;;;;39.00;37.67;;;;;2.39;86.38;100715.47;4872287;29;11770;-77
2021/03/25 00:27:42;;;;;;;;;42.67;34.67;;;;;2.48;85.67;100705.63;4881126;29;8918;-77
2021/03/25 00:30:38;;;;;;;;;29.67;27.67;;;;;2.45;86.18;100714.38;4881464;29;8899;-78
2021/03/25 00:33:35;;;;;;;;;23.33;18.33;;;;;2.49;85.54;100715.44;4869427;29;8990;-77
2021/03/25 00:36:30;;;;;;;;;31.50;29.50;;;;;2.36;86.00;100709.75;4881088;29;9673;-77
2021/03/25 00:39:26;;;;;;;;;34.67;30.67;;;;;2.33;86.92;100710.31;4880717;29;11725;-77
2021/03/25 00:41:54;;;;;;;;;33.00;29.00;;;;;2.33;86.37;100713.03;4865363;29;11783;-77
2021/03/25 00:44:51;;;;;;;;;40.00;39.67;;;;;2.59;85.79;100700.13;4879680;29;11731;-77
2021/03/25 00:47:46;;;;;;;;;29.33;28.00;;;;;2.29;86.37;100706.47;4867690;29;9613;-77
2021/03/25 00:50:45;;;;;;;;;32.33;32.33;;;;;2.44;85.63;100706.44;4881850;29;11791;-78
2021/03/25 00:53:42;;;;;;;;;39.33;36.00;;;;;2.42;86.14;100698.53;4873028;29;11850;-77
2021/03/25 00:56:10;;;;;;;;;32.67;31.67;;;;;2.55;86.13;100699.88;4863476;29;8869;-78
2021/03/25 00:59:05;;;;;;;;;30.67;30.67;;;;;2.70;85.55;100702.56;4878705;29;8868;-78
2021/03/25 01:01:33;;;;;;;;;34.33;31.67;;;;;2.51;85.60;100698.78;4881427;29;8880;-78
2021/03/25 01:04:14;;;;;;;;;30.33;30.33;;;;;2.39;86.24;100703.75;4866881;29;11780;-78
2021/03/25 01:10:40;;;;;;;;;37.67;37.67;;;;;2.40;86.43;100700.75;4881309;29;11746;-78
2021/03/25 01:13:27;;;;;;;;;33.67;33.67;;;;;2.40;86.31;100700.75;4881285;29;11735;-78
2021/03/25 01:16:30;;;;;;;;;37.00;37.00;;;;;2.45;86.03;100695.28;4867623;29;11738;-78
2021/03/25 01:19:30;;;;;;;;;35.33;33.00;;;;;2.31;86.38;100698.84;4867077;29;11687;-79
2021/03/25 01:22:25;;;;;;;;;29.33;29.33;;;;;2.34;86.47;100701.03;4880689;29;8884;-79
2021/03/25 01:25:08;;;;;;;;;32.33;32.33;;;;;2.41;86.17;100704.28;4880616;29;11720;-78
2021/03/25 01:28:07;;;;;;;;;34.33;25.67;;;;;2.21;86.21;100700.47;4879296;29;11851;-79
2021/03/25 01:31:03;;;;;;;;;28.33;27.33;;;;;2.23;86.37;100700.22;4860770;29;11744;-78
2021/03/25 01:33:59;;;;;;;;;29.33;28.00;;;;;2.30;86.63;100706.22;4861022;29;11721;-78
2021/03/25 01:36:56;;;;;;;;;24.00;24.00;;;;;2.31;86.37;100704.31;4861562;29;11813;-77
2021/03/25 01:39:52;;;;;;;;;37.00;33.67;;;;;2.33;86.15;100704.84;4861411;29;8893;-78
2021/03/25 01:42:27;;;;;;;;;33.67;33.00;;;;;2.45;85.48;100708.06;4862384;29;8906;-78
2021/03/25 01:45:28;;;;;;;;;30.33;28.33;;;;;2.42;86.16;100709.47;4860834;29;11750;-78
2021/03/25 01:48:12;;;;;;;;;29.33;27.00;;;;;2.36;85.79;100707.00;4862422;29;8897;-79
2021/03/25 01:51:17;;;;;;;;;27.00;26.33;;;;;2.18;86.42;100705.69;4861150;29;11829;-80
2021/03/25 01:54:50;;;;;;;;;37.67;36.67;;;;;2.33;85.95;100705.66;4860519;29;11761;-80
2021/03/25 01:58:24;;;;;;;;;30.00;30.00;;;;;2.26;86.04;100707.84;4870517;29;8876;-78
2021/03/25 02:01:22;;;;;;;;;33.67;31.67;;;;;2.27;86.49;100704.03;4813680;29;11876;-78
2021/03/25 02:04:43;;;;;;;;;34.00;32.00;;;;;2.38;86.73;100705.66;4821440;29;8921;-79
2021/03/25 02:07:53;;;;;;;;;33.00;32.33;;;;;2.29;86.49;100699.09;4878903;29;8979;-79
2021/03/25 02:10:28;;;;;;;;;44.33;39.33;;;;;2.36;86.53;100701.56;4863894;29;9066;-79
2021/03/25 02:13:11;;;;;;;;;32.33;28.33;;;;;2.22;86.81;100704.88;4863768;29;11748;-79
2021/03/25 02:16:12;;;;;;;;;40.00;39.00;;;;;2.41;86.12;100704.28;4879289;29;8906;-79
2021/03/25 02:19:23;;;;;;;;;29.33;28.00;;;;;2.07;86.68;100699.44;4879047;29;8859;-79
2021/03/25 02:22:47;;;;;;;;;36.00;36.00;;;;;2.28;86.86;100702.94;4863853;29;11724;-78
2021/03/25 02:25:57;;;;;;;;;29.33;27.33;;;;;2.13;87.56;100709.22;4866251;29;8898;-79
2021/03/25 02:29:14;;;;;;;;;29.67;28.33;;;;;2.09;87.22;100699.97;4878997;29;11706;-78
2021/03/25 02:32:02;;;;;;;;;21.67;21.67;;;;;2.20;87.15;100706.22;4881286;29;11753;-77
2021/03/25 02:34:40;;;;;;;;;33.00;30.00;;;;;2.08;87.38;100708.44;4863817;29;8918;-78
2021/03/25 02:37:38;;;;;;;;;31.33;26.67;;;;;2.11;87.11;100714.16;4880626;29;8876;-78
2021/03/25 02:40:40;;;;;;;;;45.33;43.00;;;;;2.32;86.75;100717.69;4878396;29;8943;-77
2021/03/25 02:43:21;;;;;;;;;31.33;31.33;;;;;1.99;87.27;100713.59;4880042;29;8907;-78
2021/03/25 02:46:48;;;;;;;;;44.00;42.67;;;;;2.04;87.60;100708.16;4877987;29;8899;-78
2021/03/25 02:49:21;;;;;;;;;28.67;28.67;;;;;2.07;87.44;100712.22;4879332;29;8963;-78
2021/03/25 02:52:21;;;;;;;;;20.00;20.00;;;;;2.20;86.88;100706.22;4866235;29;8880;-78
2021/03/25 02:54:53;;;;;;;;;35.33;34.67;;;;;2.20;87.25;100717.13;4863748;29;8891;-79
2021/03/25 02:57:59;;;;;;;;;26.67;26.67;;;;;2.10;87.09;100706.25;4878494;29;8955;-79
2021/03/25 03:00:38;;;;;;;;;37.33;36.67;;;;;2.14;87.32;100710.84;4879859;29;8895;-77
2021/03/25 03:03:40;;;;;;;;;24.67;24.67;;;;;1.95;87.66;100709.78;4878694;29;8944;-79
2021/03/25 03:06:26;;;;;;;;;42.00;38.00;;;;;2.07;87.56;100713.06;4879584;29;9607;-78
2021/03/25 03:09:26;;;;;;;;;42.00;38.33;;;;;2.16;86.97;100719.59;4866380;29;8876;-79
2021/03/25 03:12:26;;;;;;;;;35.67;35.67;;;;;2.16;87.51;100711.41;4879264;29;8863;-79
2021/03/25 03:15:31;;;;;;;;;32.33;31.33;;;;;2.10;86.92;100712.50;4866151;29;8994;-79
2021/03/25 03:18:31;;;;;;;;;31.00;30.33;;;;;2.14;87.48;100710.03;4877792;29;8915;-79
2021/03/25 03:21:07;;;;;;;;;27.33;27.33;;;;;2.11;87.91;100708.69;4860876;29;12541;-79
2021/03/25 03:24:05;;;;;;;;;42.67;40.00;;;;;1.94;88.32;100708.97;4878751;29;8887;-78
2021/03/25 03:26:38;;;;;;;;;52.33;46.33;;;;;1.94;87.74;100703.50;4862893;29;8895;-78
2021/03/25 03:29:35;;;;;;;;;44.00;43.33;;;;;2.01;88.41;100711.44;4865906;29;8915;-79
2021/03/25 03:32:15;;;;;;;;;60.67;52.00;;;;;1.94;88.17;100708.16;4862805;29;8998;-77
2021/03/25 03:35:20;;;;;;;;;64.67;52.67;;;;;1.91;87.96;100712.22;4879028;29;8947;-78
2021/03/25 03:38:11;;;;;;;;;60.33;50.00;;;;;1.90;88.40;100712.50;4860835;29;8903;-79
2021/03/25 03:41:10;;;;;;;;;58.67;48.00;;;;;2.07;87.45;100707.63;4889655;29;8875;-78
2021/03/25 03:44:11;;;;;;;;;34.67;33.33;;;;;1.87;87.86;100711.16;4879666;29;8899;-80
2021/03/25 03:47:09;;;;;;;;;49.00;45.00;;;;;2.13;87.48;100714.69;4879783;29;8856;-79
2021/03/25 03:50:18;;;;;;;;;50.00;45.00;;;;;2.03;88.00;100713.88;4860196;29;8874;-78
2021/03/25 03:53:14;;;;;;;;;27.33;27.33;;;;;1.94;88.22;100716.34;4862863;29;8882;-78
2021/03/25 03:56:52;;;;;;;;;24.00;24.00;;;;;1.90;88.22;100715.22;4863432;29;8890;-79
2021/03/25 03:59:38;;;;;;;;;28.67;28.67;;;;;2.07;87.83;100707.63;4846865;29;8891;-77
2021/03/25 04:02:19;;;;;;;;;33.00;33.00;;;;;1.93;87.87;100717.44;4889743;29;8991;-79
2021/03/25 04:05:12;;;;;;;;;28.67;28.67;;;;;2.04;87.33;100708.16;4882247;29;8876;-78
2021/03/25 04:08:45;;;;;;;;;25.00;25.00;;;;;1.83;87.75;100717.41;4866469;29;9606;-79
2021/03/25 04:11:27;;;;;;;;;34.33;31.67;;;;;1.99;87.83;100716.31;4876727;29;9646;-79
2021/03/25 04:14:20;;;;;;;;;40.00;38.33;;;;;2.23;87.49;100714.69;4881219;29;8994;-78
2021/03/25 04:17:06;;;;;;;;;27.00;27.00;;;;;1.86;87.76;100725.88;4881224;29;8872;-79
2021/03/25 04:19:40;;;;;;;;;39.00;36.33;;;;;2.01;87.86;100732.44;4882369;29;8983;-79
2021/03/25 04:22:42;;;;;;;;;38.67;37.00;;;;;2.15;87.72;100736.25;4863125;29;8878;-79
2021/03/25 04:25:17;;;;;;;;;41.00;38.00;;;;;2.13;87.12;100728.31;4867621;29;8923;-78
2021/03/25 04:28:23;;;;;;;;;41.00;39.00;;;;;2.14;87.25;100734.59;4881412;29;8863;-79
2021/03/25 04:31:19;;;;;;;;;38.00;38.00;;;;;2.26;86.91;100731.59;4881249;29;9713;-79
2021/03/25 04:33:47;;;;;;;;;33.33;33.33;;;;;2.16;86.62;100733.25;4883422;29;8895;-78
2021/03/25 04:36:41;;;;;;;;;22.33;22.33;;;;;2.05;87.25;100731.59;4868721;29;8898;-79
2021/03/25 04:39:38;;;;;;;;;36.67;36.67;;;;;2.06;87.21;100737.88;4862870;29;9695;-79
2021/03/25 04:42:34;;;;;;;;;26.33;24.00;;;;;2.00;87.26;100728.06;4863427;29;8868;-79
2021/03/25 04:45:14;;;;;;;;;47.33;43.33;;;;;2.17;86.90;100732.16;4881261;29;8863;-79
2021/03/25 04:47:47;;;;;;;;;30.00;27.33;;;;;2.02;87.51;100734.88;4881902;29;8890;-81
2021/03/25 04:50:56;;;;;;;;;39.33;35.67;;;;;1.97;87.87;100740.34;4880739;29;8879;-80
2021/03/25 04:53:31;;;;;;;;;43.33;37.67;;;;;1.98;87.69;100747.41;4864869;29;8904;-80
2021/03/25 04:56:01;;;;;;;;;42.33;35.67;;;;;1.97;87.91;100743.06;4882267;29;8898;-79
2021/03/25 04:59:00;;;;;;;;;22.33;22.33;;;;;2.09;87.77;100743.63;4868082;29;11728;-79
2021/03/25 05:01:56;;;;;;;;;23.00;22.67;;;;;2.02;88.20;100753.16;4880287;29;11715;-81
2021/03/25 05:04:55;;;;;;;;;29.00;26.00;;;;;1.99;88.39;100751.78;4868403;29;8894;-80
2021/03/25 05:07:34;;;;;;;;;23.67;23.33;;;;;2.07;87.81;100755.88;4881517;29;8981;-80
2021/03/25 05:10:12;;;;;;;;;33.67;31.00;;;;;2.18;87.13;100752.88;4882863;29;11734;-79
2021/03/25 05:12:39;;;;;;;;;30.00;30.00;;;;;2.24;86.61;100759.16;4882342;29;8896;-80
2021/03/25 05:15:16;;;;;;;;;29.33;29.33;;;;;2.10;87.08;100755.34;4864839;29;11732;-81
2021/03/25 05:17:47;;;;;;;;;30.00;28.33;;;;;2.05;87.77;100752.59;4880201;29;8890;-82
2021/03/25 05:20:23;;;;;;;;;31.00;31.00;;;;;2.08;87.23;100754.81;4875469;29;8894;-81
2021/03/25 05:23:22;;;;;;;;;27.67;27.00;;;;;2.21;87.87;100754.25;4880236;29;11777;-81
2021/03/25 05:26:13;;;;;;;;;26.00;26.00;;;;;2.31;87.08;100748.78;4880252;29;11747;-81
2021/03/25 05:29:12;;;;;;;;;26.67;25.33;;;;;2.33;86.61;100757.50;4864248;29;8898;-81
2021/03/25 05:31:44;;;;;;;;;20.00;20.00;;;;;2.28;86.74;100760.25;4870475;29;11739;-82
2021/03/25 05:34:22;;;;;;;;;18.33;18.33;;;;;2.35;86.64;100760.78;4879687;29;11704;-82
2021/03/25 05:37:18;;;;;;;;;25.67;25.67;;;;;2.21;87.44;100776.88;4866523;29;11699;-81
2021/03/25 05:40:37;;;;;;;;;26.67;26.67;;;;;2.12;87.54;100775.81;4879407;29;11712;-82
2021/03/25 05:44:01;;;;;;;;;21.67;21.33;;;;;2.20;87.76;100777.16;4866885;29;12438;-85
2021/03/25 05:47:42;;;;;;;;;20.00;19.00;;;;;2.20;87.32;100777.16;4870807;29;11700;-82
2021/03/25 05:50:48;;;;;;;;;27.00;24.67;;;;;2.17;87.54;100780.44;4878948;29;11715;-81
2021/03/25 05:54:04;;;;;;;;;25.67;23.33;;;;;2.16;87.64;100781.53;4879978;29;11736;-82
2021/03/25 05:57:40;;;;;;;;;19.33;17.67;;;;;2.25;87.54;100790.00;4879236;29;11714;-81
2021/03/25 06:01:06;;;;;;;;;20.00;20.00;;;;;2.11;87.98;100787.00;4877758;29;11800;-80
2021/03/25 06:03:54;;;;;;;;;21.00;21.00;;;;;2.21;87.77;100796.00;4863623;29;12381;-78
2021/03/25 06:06:42;;;;;;;;;30.00;27.67;;;;;2.23;87.62;100787.56;4879533;29;11731;-83
2021/03/25 06:09:34;;;;;;;;;18.33;18.33;;;;;2.27;86.93;100790.53;4879699;29;11713;-82
2021/03/25 06:12:35;;;;;;;;;21.67;21.67;;;;;2.24;87.64;100791.91;4879449;29;11720;-81
2021/03/25 06:15:43;;;;;;;;;18.00;18.00;;;;;2.26;88.03;100797.91;4876119;29;11719;-81
2021/03/25 06:18:47;;;;;;;;;17.50;17.50;;;;;2.26;87.74;100802.56;4893872;29;12527;-81
2021/03/25 06:24:55;;;;;;;;;20.75;20.50;;;;;2.42;86.89;100796.81;5153229;27;1108733;-80
2021/03/25 06:28:10;;;;;;;;;14.00;14.00;;;;;2.41;87.10;100797.91;5158143;27;8833;-83
2021/03/25 06:31:21;;;;;;;;;21.00;20.75;;;;;2.62;86.47;100800.63;5171851;27;11470;-80
2021/03/25 06:34:10;;;;;;;;;17.75;17.75;;;;;2.51;86.78;100799.81;5155820;27;12253;-82
2021/03/25 06:37:15;;;;;;;;;16.25;16.25;;;;;2.53;86.57;100802.25;5174469;27;11557;-82
2021/03/25 06:40:30;;;;;;;;;11.00;11.00;;;;;2.42;87.03;100801.47;5161368;27;11605;-84
2021/03/25 06:43:05;;;;;;;;;18.25;18.25;;;;;2.57;86.39;100803.34;5142541;27;11563;-85
2021/03/25 06:46:38;;;;;;;;;13.50;13.50;;;;;2.59;86.90;100806.63;5158636;27;11485;-85
2021/03/25 06:49:48;;;;;;;;;20.75;20.75;;;;;2.81;86.40;100804.41;5163260;27;11485;-82
2021/03/25 06:52:44;;;;;;;;;20.75;19.75;;;;;2.56;86.08;100808.00;5166429;27;11494;-82
2021/03/25 06:55:40;;;;;;;;;22.33;22.33;;;;;2.73;86.08;100810.44;5151928;27;11498;-80
2021/03/25 06:58:33;;;;;;;;;27.00;25.00;;;;;2.59;86.26;100814.81;5163024;27;11518;-81
2021/03/25 07:01:47;;;;;;;;;38.67;35.00;;;;;2.67;86.41;100814.25;5145342;27;11481;-82
2021/03/25 07:04:19;;;;;;;;;22.00;19.33;;;;;2.60;86.55;100817.25;5156188;27;8868;-81
2021/03/25 07:07:24;;;;;;;;;35.67;30.67;;;;;2.66;86.54;100813.44;5147499;27;11606;-81
2021/03/25 07:09:52;;;;;;;;;27.25;26.75;;;;;2.58;86.57;100821.38;5176564;27;11605;-82
2021/03/25 07:12:24;;;;;;;;;19.50;19.50;;;;;2.66;86.67;100818.91;5153933;27;11502;-82
2021/03/25 07:14:55;;;;;;;;;19.25;19.25;;;;;2.64;86.79;100820.28;5138014;27;11641;-81
2021/03/25 07:17:53;;;;;;;;;17.50;15.50;;;;;2.63;86.79;100821.38;5158945;27;11512;-83
2021/03/25 07:20:38;;;;;;;;;41.33;40.67;;;;;2.88;86.04;100823.25;5170411;27;12271;-83
2021/03/25 07:23:19;;;;;;;;;29.50;26.00;;;;;2.90;85.66;100823.78;5155561;27;12457;-83
2021/03/25 07:26:30;;;;;;;;;25.50;24.50;;;;;3.03;85.29;100826.75;5159758;27;11530;-82
2021/03/25 07:29:34;;;;;;;;;33.25;30.75;;;;;3.01;85.60;100825.41;5138232;27;11587;-80
2021/03/25 07:32:05;;;;;;;;;18.50;17.00;;;;;2.72;85.81;100830.66;5160532;27;11591;-82
2021/03/25 07:35:27;;;;;;;;;27.00;27.00;;;;;3.10;85.11;100831.94;5141996;27;11611;-80
2021/03/25 07:38:29;;;;;;;;;27.00;25.25;;;;;3.17;85.21;100826.19;5138718;27;11481;-77
2021/03/25 07:41:29;;;;;;;;;25.75;25.75;;;;;3.18;84.74;100825.09;5142111;27;11576;-79
2021/03/25 07:44:25;;;;;;;;;25.25;24.25;;;;;3.11;84.74;100830.84;5140780;27;11525;-79
2021/03/25 07:47:39;;;;;;;;;27.50;22.75;;;;;3.00;84.93;100838.25;5152762;27;11659;-81
2021/03/25 07:50:22;;;;;;;;;67.00;54.67;;;;;3.20;84.77;100831.91;5145168;27;11499;-79
2021/03/25 07:52:51;;;;;;;;;25.75;25.00;;;;;3.27;84.71;100834.34;5129012;27;8839;-80
2021/03/25 07:55:47;;;;;;;;;25.75;24.75;;;;;3.14;85.07;100841.19;5155932;27;12434;-80
2021/03/25 07:58:43;;;;;;;;;27.50;25.25;;;;;3.25;85.17;100837.34;5159267;27;11467;-79
2021/03/25 08:01:25;;;;;;;;;29.50;27.00;;;;;3.23;84.76;100845.03;5127273;27;11673;-81
2021/03/25 08:03:58;;;;;;;;;26.00;24.75;;;;;2.92;85.20;100827.06;5128376;27;11500;-82
2021/03/25 08:06:36;;;;;;;;;27.00;27.00;;;;;2.96;85.67;100833.59;5158480;27;11496;-80
2021/03/25 08:09:11;;;;;;;;;27.25;25.75;;;;;3.09;85.42;100841.25;5157699;27;11482;-80
2021/03/25 08:12:02;;;;;;;;;26.25;26.25;;;;;3.44;85.31;100840.28;5156495;27;11496;-81
2021/03/25 08:15:36;;;;;;;;;33.75;33.25;;;;;3.44;84.78;100843.00;5127516;27;11517;-81
2021/03/25 08:18:57;;;;;;;;;35.00;35.00;;;;;3.53;84.80;100841.38;5136208;27;11540;-83
2021/03/25 08:22:23;;;;;;;;;25.00;24.25;;;;;3.63;84.35;100840.50;5138595;27;11511;-82
2021/03/25 08:25:35;;;;;;;;;35.25;31.00;;;;;3.57;84.66;100855.28;5136500;27;11491;-81
2021/03/25 08:28:09;;;;;;;;;31.75;29.75;;;;;3.76;83.94;100852.75;5141675;27;11493;-83
2021/03/25 08:30:50;;;;;;;;;29.50;29.50;;;;;3.71;83.61;100852.75;5137569;27;12294;-82
2021/03/25 08:34:10;;;;;;;;;24.50;24.50;;;;;3.61;84.21;100850.91;5139807;27;11506;-77
2021/03/25 08:37:02;;;;;;;;;37.25;34.50;;;;;3.51;85.47;100861.88;5138097;27;11579;-77
2021/03/25 08:40:02;;;;;;;;;28.75;28.50;;;;;3.70;84.24;100853.88;5152530;27;11511;-74
2021/03/25 08:42:46;;;;;;;;;23.25;23.25;;;;;3.72;84.35;100862.59;5138416;27;11474;-74
2021/03/25 08:45:27;;;;;;;;;31.75;31.75;;;;;3.86;83.96;100869.09;5157269;27;12221;-74
2021/03/25 08:48:26;;;;;;;;;27.00;25.75;;;;;3.90;83.56;100870.16;5157352;27;11478;-74
2021/03/25 08:51:19;;;;;;;;;33.25;33.25;;;;;4.13;83.24;100866.72;5138533;27;11488;-74
2021/03/25 08:54:22;;;;;;;;;28.00;28.00;;;;;4.38;82.75;100865.75;5144797;27;11608;-73
2021/03/25 08:57:28;;;;;;;;;19.50;19.50;;;;;4.33;82.79;100867.72;5145077;27;11659;-73
2021/03/25 09:00:04;;;;;;;;;25.75;25.75;;;;;4.24;82.48;100864.78;5126166;27;11481;-74
2021/03/25 09:02:36;;;;;;;;;26.25;26.25;;;;;4.28;83.24;100865.81;5147861;27;11540;-74
2021/03/25 09:05:13;;;;;;;;;16.75;16.75;;;;;4.20;83.13;100860.94;5123907;27;11580;-73
2021/03/25 09:08:14;;;;;;;;;23.75;23.25;;;;;4.39;82.61;100872.88;5143975;27;11487;-73
2021/03/25 09:11:15;;;;;;;;;27.75;24.75;;;;;4.54;82.84;100866.47;5142955;27;11478;-74
2021/03/25 09:13:50;;;;;;;;;21.75;21.75;;;;;4.40;82.18;100869.03;5144366;27;11486;-74
2021/03/25 09:16:27;;;;;;;;;26.25;26.25;;;;;4.61;82.48;100875.19;5140209;27;11538;-74
2021/03/25 09:18:56;;;;;;;;;28.25;28.00;;;;;4.65;82.02;100869.94;5129338;27;11506;-73
2021/03/25 09:21:27;;;;;;;;;28.00;27.50;;;;;4.55;82.42;100875.50;5145462;27;11468;-74
2021/03/25 09:24:23;;;;;;;;;28.75;26.25;;;;;4.88;82.06;100879.31;5143147;27;11495;-73
2021/03/25 09:27:51;;;;;;;;;38.75;38.50;;;;;5.01;82.17;100873.16;5130107;27;11475;-74
2021/03/25 09:31:10;;;;;;;;;26.75;25.00;;;;;4.81;81.63;100882.38;5141307;27;12305;-74
2021/03/25 09:33:56;;;;;;;;;19.50;19.50;;;;;4.87;81.56;100880.44;5143711;27;11513;-76
2021/03/25 09:36:54;;;;;;;;;30.00;28.50;;;;;4.95;81.55;100885.28;5140850;27;11486;-75
2021/03/25 09:40:07;;;;;;;;;26.25;26.25;;;;;4.77;81.64;100881.34;5142526;27;11500;-76
2021/03/25 09:43:31;;;;;;;;;26.75;26.75;;;;;4.88;81.67;100879.31;5141582;27;11528;-76
2021/03/25 09:46:42;;;;;;;;;28.50;26.75;;;;;4.98;81.48;100877.31;5143285;27;11496;-75
2021/03/25 09:49:43;;;;;;;;;33.25;31.25;;;;;5.09;81.22;100891.72;5130612;27;11515;-76
2021/03/25 09:52:44;;;;;;;;;32.00;30.25;;;;;5.02;81.89;100891.25;5145594;27;11510;-75
2021/03/25 09:56:22;;;;;;;;;23.75;23.75;;;;;5.01;80.74;100893.19;5143383;27;11474;-75
2021/03/25 09:58:52;;;;;;;;;39.75;35.75;;;;;4.91;81.68;100889.72;5110780;27;12306;-75
2021/03/25 10:01:52;;;;;;;;;28.75;28.00;;;;;4.57;82.27;100893.28;5125702;27;11527;-73
2021/03/25 10:05:20;;;;;;;;;24.50;24.50;;;;;4.86;81.35;100897.97;5144031;27;11487;-75
2021/03/25 10:08:12;;;;;;;;;34.00;31.25;;;;;5.07;81.36;100904.09;5143223;27;12234;-75
2021/03/25 10:10:45;;;;;;;;;27.00;27.00;;;;;4.73;81.24;100905.75;5142507;27;12308;-75
2021/03/25 10:13:13;;;;;;;;;27.50;27.50;;;;;4.83;81.65;100906.75;5124105;27;11518;-77
2021/03/25 10:16:37;;;;;;;;;28.75;27.00;;;;;4.67;82.15;100909.63;5143520;27;12264;-76
2021/03/25 10:19:44;;;;;;;;;40.25;38.00;;;;;4.93;82.04;100907.50;5146553;27;11492;-77
2021/03/25 10:22:41;;;;;;;;;26.75;21.25;;;;;4.67;81.92;100909.63;5141355;27;11494;-76
2021/03/25 10:25:38;;;;;;;;;27.25;26.50;;;;;4.78;81.95;100910.38;5142648;27;11600;-76
2021/03/25 10:28:46;;;;;;;;;27.00;24.50;;;;;4.68;82.75;100913.22;5133980;27;12250;-75
2021/03/25 10:31:52;;;;;;;;;24.50;24.50;;;;;4.30;83.70;100912.91;5143196;27;11528;-76
2021/03/25 10:34:44;;;;;;;;;22.25;21.00;;;;;4.37;83.20;100907.09;5143460;27;11489;-73
2021/03/25 10:37:48;;;;;;;;;30.50;27.50;;;;;4.21;83.53;100911.84;5135190;27;11504;-74
2021/03/25 10:41:00;;;;;;;;;33.25;33.00;;;;;4.36;84.08;100913.69;5148671;27;11504;-74
2021/03/25 10:43:56;;;;;;;;;28.75;28.75;;;;;4.50;83.35;100913.88;5138141;27;11466;-74
2021/03/25 10:46:34;;;;;;;;;26.00;25.25;;;;;4.16;83.91;100917.38;5135717;27;11638;-73
2021/03/25 10:49:48;;;;;;;;;29.50;28.75;;;;;4.32;84.39;100916.19;5133727;27;11649;-73
2021/03/25 10:52:45;;;;;;;;;23.50;23.50;;;;;4.00;84.10;100910.34;5145724;27;11510;-72
2021/03/25 10:55:44;;;;;;;;;23.50;23.00;;;;;4.44;84.36;100913.09;5124809;27;11469;-74
2021/03/25 10:58:44;;;;;;;;;34.00;32.75;;;;;4.36;84.02;100917.25;5144701;27;11477;-73
2021/03/25 11:01:25;;;;;;;;;24.25;24.25;;;;;4.28;84.44;100917.03;5131372;27;11571;-73
2021/03/25 11:03:52;;;;;;;;;27.75;27.00;;;;;4.33;83.80;100915.09;5154681;27;11478;-73
2021/03/25 11:06:24;;;;;;;;;30.75;28.25;;;;;4.52;83.51;100917.94;5136937;27;11526;-72
2021/03/25 11:09:17;;;;;;;;;0.00;0.00;;;;;4.49;83.72;100924.00;5134738;27;11576;-73
2021/03/25 11:12:30;;;;;;;;;36.00;36.00;;;;;4.55;83.27;100920.13;5136448;27;11450;-74
2021/03/25 11:15:01;;;;;;;;;28.75;28.75;;;;;4.71;83.05;100915.38;5145631;27;11500;-74
2021/03/25 11:17:59;;;;;;;;;29.25;25.50;;;;;4.56;82.82;100927.25;5138672;27;11534;-74
2021/03/25 11:20:30;;;;;;;;;29.25;29.25;;;;;4.59;83.45;100926.66;5137478;27;11493;-73
2021/03/25 11:23:28;;;;;;;;;31.75;30.50;;;;;4.78;83.37;100926.81;5143783;27;11514;-74
2021/03/25 11:26:24;;;;;;;;;29.75;28.75;;;;;4.55;82.45;100927.53;5141686;27;11496;-74
2021/03/25 11:29:21;;;;;;;;;30.75;30.25;;;;;4.67;82.87;100934.28;5152881;27;11506;-74
2021/03/25 11:32:24;;;;;;;;;31.00;30.75;;;;;4.72;83.07;100936.16;5148834;27;11484;-75
2021/03/25 11:35:23;;;;;;;;;23.25;23.25;;;;;4.74;82.68;100936.69;5155489;27;12211;-74
2021/03/25 11:38:25;;;;;;;;;25.00;23.00;;;;;4.37;83.08;100927.13;5146650;27;12206;-75
2021/03/25 11:41:00;;;;;;;;;27.25;25.75;;;;;4.32;83.48;100935.34;5148024;27;11519;-74
2021/03/25 11:43:39;;;;;;;;;25.50;25.50;;;;;4.43;83.71;100927.88;5147382;27;11474;-74
2021/03/25 11:46:06;;;;;;;;;24.75;24.75;;;;;4.46;83.63;100938.28;5152024;27;11588;-74
2021/03/25 11:49:13;;;;;;;;;24.75;23.75;;;;;4.36;83.59;100930.94;5140496;27;11526;-75
2021/03/25 11:51:45;;;;;;;;;24.75;22.75;;;;;4.50;83.46;100938.53;5149329;27;11487;-74
2021/03/25 11:54:37;;;;;;;;;25.75;23.25;;;;;4.41;83.79;100930.09;5140300;27;11532;-73
2021/03/25 11:57:36;;;;;;;;;28.75;28.75;;;;;4.72;83.01;100938.91;5137620;27;11509;-75
2021/03/25 12:00:32;;;;;;;;;37.25;35.75;;;;;4.73;83.16;100940.53;5136708;27;11562;-74
2021/03/25 12:03:14;;;;;;;;;23.25;23.00;;;;;4.58;83.05;100946.13;5138196;27;11521;-74
2021/03/25 12:05:46;;;;;;;;;25.00;22.75;;;;;4.66;83.06;100949.09;5137954;27;11513;-75
2021/03/25 12:08:17;;;;;;;;;24.25;24.25;;;;;4.55;82.70;100949.44;5157268;27;11521;-75
2021/03/25 12:11:09;;;;;;;;;26.75;26.50;;;;;4.56;82.88;100951.91;5149294;27;11600;-75
2021/03/25 12:14:07;;;;;;;;;24.75;23.25;;;;;4.56;83.42;100959.31;5122882;27;11490;-74
2021/03/25 12:17:04;;;;;;;;;35.00;31.50;;;;;4.69;82.65;100953.19;5143599;27;11576;-72
2021/03/25 12:19:59;;;;;;;;;24.25;24.25;;;;;4.36;83.41;100955.56;5109359;27;12235;-71
2021/03/25 12:23:07;;;;;;;;;30.25;30.25;;;;;4.37;83.35;100962.72;5123027;27;11502;-73
2021/03/25 12:25:41;;;;;;;;;23.75;23.75;;;;;4.36;83.55;100954.75;5103695;27;12242;-72
2021/03/25 12:28:40;;;;;;;;;28.25;28.25;;;;;4.59;82.98;100955.97;5143089;27;11482;-74
2021/03/25 12:31:40;;;;;;;;;28.00;28.00;;;;;4.55;82.90;100955.75;5129922;27;11510;-74
2021/03/25 12:34:36;;;;;;;;;28.00;27.25;;;;;4.42;83.74;100959.94;5133698;27;11603;-72
2021/03/25 12:37:31;;;;;;;;;8.25;1.00;;;;;4.55;83.49;100961.22;5148999;27;11553;-74
2021/03/25 12:40:28;;;;;;;;;25.25;25.25;;;;;4.32;83.52;100956.44;5144243;27;11509;-75
2021/03/25 12:42:58;;;;;;;;;26.25;26.25;;;;;4.15;84.29;100967.75;5124977;27;11479;-73
2021/03/25 12:45:57;;;;;;;;;33.75;33.75;;;;;4.13;83.59;100957.06;5132766;27;11525;-72
2021/03/25 12:48:52;;;;;;;;;37.50;35.00;;;;;4.43;83.93;100963.47;5145172;27;11480;-73
2021/03/25 12:51:22;;;;;;;;;31.00;29.25;;;;;4.40;83.32;100966.81;5147435;27;12291;-72
2021/03/25 12:54:18;;;;;;;;;28.00;27.50;;;;;4.19;83.89;100964.16;5143241;27;11568;-72
2021/03/25 12:57:20;;;;;;;;;27.00;27.00;;;;;4.04;84.19;100974.38;5130466;27;11569;-72
2021/03/25 13:00:29;;;;;;;;;34.75;33.50;;;;;4.18;84.53;100975.41;5139423;27;11502;-72
2021/03/25 13:03:11;;;;;;;;;28.50;25.00;;;;;4.04;84.57;100977.09;5140152;27;11572;-72
2021/03/25 13:06:08;;;;;;;;;26.50;26.00;;;;;4.08;84.76;100979.00;5139363;27;11513;-72
2021/03/25 13:09:04;;;;;;;;;30.50;29.50;;;;;4.05;84.71;100987.75;5137177;27;11472;-72
2021/03/25 13:12:08;;;;;;;;;29.50;28.50;;;;;3.77;85.26;100991.16;5138405;27;11506;-73
2021/03/25 13:15:05;;;;;;;;;27.00;26.00;;;;;4.04;85.61;100988.88;5144814;27;11501;-74
2021/03/25 13:17:55;;;;;;;;;26.50;26.50;;;;;3.92;85.22;100993.84;5144035;27;11478;-72
2021/03/25 13:20:31;;;;;;;;;29.25;28.75;;;;;4.06;85.30;101000.34;5144227;27;11532;-73
2021/03/25 13:23:15;;;;;;;;;18.25;17.00;;;;;3.91;85.53;100994.97;5143030;27;11505;-73
2021/03/25 13:25:43;;;;;;;;;30.50;30.25;;;;;3.84;85.08;101008.09;5125322;27;11475;-73
2021/03/25 13:28:15;;;;;;;;;40.00;38.00;;;;;3.80;85.89;101002.34;5144036;27;12307;-74
2021/03/25 13:31:13;;;;;;;;;27.00;26.25;;;;;3.87;85.25;101002.06;5144263;27;11622;-72